sensor_id;sensor_type;location;lat;lon;timestamp;temperature;humidity
1083;DHT22;530;51.448;7.238;2024-01-06T00:01:39;7.60;99.90
1083;DHT22;530;51.448;7.238;2024-01-06T00:04:04;7.70;99.90
1083;DHT22;530;51.448;7.238;2024-01-06T00:06:30;7.60;99.90
1083;DHT22;530;51.448;7.238;2024-01-06T00:08:56;7.70;99.90
1083;DHT22;530;51.448;7.238;2024-01-06T00:11:22;7.60;99.90
1083;DHT22;530;51.448;7.238;2024-01-06T00:13:48;7.70;99.90
1083;DHT22;530;51.448;7.238;2024-01-06T00:16:17;7.70;99.90
1083;DHT22;530;51.448;7.238;2024-01-06T00:18:43;7.70;99.90
1083;DHT22;530;51.448;7.238;2024-01-06T00:21:09;7.60;99.90
1083;DHT22;530;51.448;7.238;2024-01-06T00:23:35;7.70;99.90
1083;DHT22;530;51.448;7.238;2024-01-06T00:26:00;7.60;99.90
1083;DHT22;530;51.448;7.238;2024-01-06T00:28:26;7.70;99.90
1083;DHT22;530;51.448;7.238;2024-01-06T00:30:52;7.60;99.90
1083;DHT22;530;51.448;7.238;2024-01-06T00:33:17;7.70;99.90
1083;DHT22;530;51.448;7.238;2024-01-06T00:35:43;7.70;99.90
1083;DHT22;530;51.448;7.238;2024-01-06T00:38:09;7.60;99.90
1083;DHT22;530;51.448;7.238;2024-01-06T00:40:34;7.60;99.90
1083;DHT22;530;51.448;7.238;2024-01-06T00:43:00;7.70;99.90
1083;DHT22;530;51.448;7.238;2024-01-06T00:45:26;7.60;99.90
1083;DHT22;530;51.448;7.238;2024-01-06T00:47:51;7.70;99.90
1083;DHT22;530;51.448;7.238;2024-01-06T00:50:18;7.60;99.90
1083;DHT22;530;51.448;7.238;2024-01-06T00:52:45;7.60;99.90
1083;DHT22;530;51.448;7.238;2024-01-06T00:55:11;7.70;99.90
1083;DHT22;530;51.448;7.238;2024-01-06T00:57:36;7.60;99.90
1083;DHT22;530;51.448;7.238;2024-01-06T01:00:04;7.70;99.90
1083;DHT22;530;51.448;7.238;2024-01-06T01:02:31;7.60;99.90
1083;DHT22;530;51.448;7.238;2024-01-06T01:04:56;7.60;99.90
1083;DHT22;530;51.448;7.238;2024-01-06T01:07:23;7.60;99.90
1083;DHT22;530;51.448;7.238;2024-01-06T01:09:49;7.60;99.90
1083;DHT22;530;51.448;7.238;2024-01-06T01:12:15;7.60;99.90
1083;DHT22;530;51.448;7.238;2024-01-06T01:14:41;7.60;99.90
1083;DHT22;530;51.448;7.238;2024-01-06T01:17:06;7.60;99.90
1083;DHT22;530;51.448;7.238;2024-01-06T01:19:32;7.60;99.90
1083;DHT22;530;51.448;7.238;2024-01-06T01:21:58;7.60;99.90
1083;DHT22;530;51.448;7.238;2024-01-06T01:24:23;7.60;99.90
1083;DHT22;530;51.448;7.238;2024-01-06T01:26:49;7.60;99.90
1083;DHT22;530;51.448;7.238;2024-01-06T01:29:18;7.60;99.90
1083;DHT22;530;51.448;7.238;2024-01-06T01:31:46;7.60;99.90
1083;DHT22;530;51.448;7.238;2024-01-06T01:34:12;7.60;99.90
1083;DHT22;530;51.448;7.238;2024-01-06T01:36:38;7.60;99.90
1083;DHT22;530;51.448;7.238;2024-01-06T01:39:03;7.60;99.90
1083;DHT22;530;51.448;7.238;2024-01-06T01:41:29;7.60;99.90
1083;DHT22;530;51.448;7.238;2024-01-06T01:43:55;7.60;99.90
1083;DHT22;530;51.448;7.238;2024-01-06T01:46:30;7.60;99.90
1083;DHT22;530;51.448;7.238;2024-01-06T01:48:57;7.60;99.90
1083;DHT22;530;51.448;7.238;2024-01-06T01:51:30;7.60;99.90
1083;DHT22;530;51.448;7.238;2024-01-06T01:54:01;7.60;99.90
1083;DHT22;530;51.448;7.238;2024-01-06T01:56:28;7.60;99.90
1083;DHT22;530;51.448;7.238;2024-01-06T01:58:54;7.60;99.90
1083;DHT22;530;51.448;7.238;2024-01-06T02:01:20;7.60;99.90
1083;DHT22;530;51.448;7.238;2024-01-06T02:03:46;7.60;99.90
1083;DHT22;530;51.448;7.238;2024-01-06T02:06:12;7.60;99.90
1083;DHT22;530;51.448;7.238;2024-01-06T02:08:38;7.60;99.90
1083;DHT22;530;51.448;7.238;2024-01-06T02:11:04;7.60;99.90
1083;DHT22;530;51.448;7.238;2024-01-06T02:13:34;7.60;99.90
1083;DHT22;530;51.448;7.238;2024-01-06T02:16:04;7.60;99.90
1083;DHT22;530;51.448;7.238;2024-01-06T02:18:30;7.60;99.90
1083;DHT22;530;51.448;7.238;2024-01-06T02:21:01;7.60;99.90
1083;DHT22;530;51.448;7.238;2024-01-06T02:23:27;7.60;99.90
1083;DHT22;530;51.448;7.238;2024-01-06T02:25:53;7.60;99.90
1083;DHT22;530;51.448;7.238;2024-01-06T02:28:19;7.60;99.90
1083;DHT22;530;51.448;7.238;2024-01-06T02:30:45;7.60;99.90
1083;DHT22;530;51.448;7.238;2024-01-06T02:33:11;7.60;99.90
1083;DHT22;530;51.448;7.238;2024-01-06T02:35:37;7.60;99.90
1083;DHT22;530;51.448;7.238;2024-01-06T02:38:03;7.60;99.90
1083;DHT22;530;51.448;7.238;2024-01-06T02:40:28;7.60;99.90
1083;DHT22;530;51.448;7.238;2024-01-06T02:42:54;7.60;99.90
1083;DHT22;530;51.448;7.238;2024-01-06T02:45:20;7.60;99.90
1083;DHT22;530;51.448;7.238;2024-01-06T02:47:45;7.60;99.90
1083;DHT22;530;51.448;7.238;2024-01-06T02:50:11;7.60;99.90
1083;DHT22;530;51.448;7.238;2024-01-06T02:52:37;7.60;99.90
1083;DHT22;530;51.448;7.238;2024-01-06T02:55:03;7.60;99.90
1083;DHT22;530;51.448;7.238;2024-01-06T02:57:30;7.60;99.90
1083;DHT22;530;51.448;7.238;2024-01-06T02:59:56;7.60;99.90
1083;DHT22;530;51.448;7.238;2024-01-06T03:02:22;7.60;99.90
1083;DHT22;530;51.448;7.238;2024-01-06T03:04:48;7.60;99.90
1083;DHT22;530;51.448;7.238;2024-01-06T03:07:14;7.60;99.90
1083;DHT22;530;51.448;7.238;2024-01-06T03:09:39;7.60;99.90
1083;DHT22;530;51.448;7.238;2024-01-06T03:12:06;7.60;99.90
1083;DHT22;530;51.448;7.238;2024-01-06T03:14:36;7.60;99.90
1083;DHT22;530;51.448;7.238;2024-01-06T03:17:02;7.60;99.90
1083;DHT22;530;51.448;7.238;2024-01-06T03:19:29;7.60;99.90
1083;DHT22;530;51.448;7.238;2024-01-06T03:21:54;7.60;99.90
1083;DHT22;530;51.448;7.238;2024-01-06T03:24:24;7.60;99.90
1083;DHT22;530;51.448;7.238;2024-01-06T03:26:50;7.60;99.90
1083;DHT22;530;51.448;7.238;2024-01-06T03:29:16;7.60;99.90
1083;DHT22;530;51.448;7.238;2024-01-06T03:31:42;7.60;99.90
1083;DHT22;530;51.448;7.238;2024-01-06T03:34:09;7.60;99.90
1083;DHT22;530;51.448;7.238;2024-01-06T03:36:37;7.60;99.90
1083;DHT22;530;51.448;7.238;2024-01-06T03:39:02;7.60;99.90
1083;DHT22;530;51.448;7.238;2024-01-06T03:41:28;7.60;99.90
1083;DHT22;530;51.448;7.238;2024-01-06T03:43:54;7.60;99.90
1083;DHT22;530;51.448;7.238;2024-01-06T03:46:19;7.60;99.90
1083;DHT22;530;51.448;7.238;2024-01-06T03:48:45;7.50;99.90
1083;DHT22;530;51.448;7.238;2024-01-06T03:51:12;7.50;99.90
1083;DHT22;530;51.448;7.238;2024-01-06T03:53:38;7.50;99.90
1083;DHT22;530;51.448;7.238;2024-01-06T03:56:05;7.50;99.90
1083;DHT22;530;51.448;7.238;2024-01-06T03:58:31;7.50;99.90
1083;DHT22;530;51.448;7.238;2024-01-06T04:00:57;7.50;99.90
1083;DHT22;530;51.448;7.238;2024-01-06T04:03:23;7.50;99.90
1083;DHT22;530;51.448;7.238;2024-01-06T04:05:48;7.50;99.90
1083;DHT22;530;51.448;7.238;2024-01-06T04:08:14;7.50;99.90
1083;DHT22;530;51.448;7.238;2024-01-06T04:10:40;7.50;99.90
1083;DHT22;530;51.448;7.238;2024-01-06T04:13:07;7.40;99.90
1083;DHT22;530;51.448;7.238;2024-01-06T04:15:33;7.40;99.90
1083;DHT22;530;51.448;7.238;2024-01-06T04:18:02;7.40;99.90
1083;DHT22;530;51.448;7.238;2024-01-06T04:20:31;7.40;99.90
1083;DHT22;530;51.448;7.238;2024-01-06T04:22:57;7.40;99.90
1083;DHT22;530;51.448;7.238;2024-01-06T04:25:23;7.40;99.90
1083;DHT22;530;51.448;7.238;2024-01-06T04:27:48;7.30;99.90
1083;DHT22;530;51.448;7.238;2024-01-06T04:30:15;7.40;99.90
1083;DHT22;530;51.448;7.238;2024-01-06T04:32:42;7.30;99.90
1083;DHT22;530;51.448;7.238;2024-01-06T04:35:08;7.30;99.90
1083;DHT22;530;51.448;7.238;2024-01-06T04:37:34;7.30;99.90
1083;DHT22;530;51.448;7.238;2024-01-06T04:40:00;7.20;99.90
1083;DHT22;530;51.448;7.238;2024-01-06T04:42:25;7.20;99.90
1083;DHT22;530;51.448;7.238;2024-01-06T04:44:51;7.20;99.90
1083;DHT22;530;51.448;7.238;2024-01-06T04:47:17;7.20;99.90
1083;DHT22;530;51.448;7.238;2024-01-06T04:49:43;7.20;99.90
1083;DHT22;530;51.448;7.238;2024-01-06T04:52:10;7.20;99.90
1083;DHT22;530;51.448;7.238;2024-01-06T04:54:35;7.10;99.90
1083;DHT22;530;51.448;7.238;2024-01-06T04:57:01;7.10;99.90
1083;DHT22;530;51.448;7.238;2024-01-06T04:59:27;7.10;99.90
1083;DHT22;530;51.448;7.238;2024-01-06T05:01:53;7.10;99.90
1083;DHT22;530;51.448;7.238;2024-01-06T05:04:19;7.10;99.90
1083;DHT22;530;51.448;7.238;2024-01-06T05:06:45;7.10;99.90
1083;DHT22;530;51.448;7.238;2024-01-06T05:09:11;7.10;99.90
1083;DHT22;530;51.448;7.238;2024-01-06T05:11:36;7.10;99.90
1083;DHT22;530;51.448;7.238;2024-01-06T05:14:02;7.10;99.90
1083;DHT22;530;51.448;7.238;2024-01-06T05:16:28;7.10;99.90
1083;DHT22;530;51.448;7.238;2024-01-06T05:18:53;7.10;99.90
1083;DHT22;530;51.448;7.238;2024-01-06T05:21:20;7.10;99.90
1083;DHT22;530;51.448;7.238;2024-01-06T05:23:45;7.00;99.90
1083;DHT22;530;51.448;7.238;2024-01-06T05:26:11;7.00;99.90
1083;DHT22;530;51.448;7.238;2024-01-06T05:28:39;7.00;99.90
1083;DHT22;530;51.448;7.238;2024-01-06T05:31:05;7.00;99.90
1083;DHT22;530;51.448;7.238;2024-01-06T05:33:30;7.00;99.90
1083;DHT22;530;51.448;7.238;2024-01-06T05:35:56;7.00;99.90
1083;DHT22;530;51.448;7.238;2024-01-06T05:38:22;7.00;99.90
1083;DHT22;530;51.448;7.238;2024-01-06T05:40:47;7.00;99.90
1083;DHT22;530;51.448;7.238;2024-01-06T05:43:13;7.00;99.90
1083;DHT22;530;51.448;7.238;2024-01-06T05:45:39;7.00;99.90
1083;DHT22;530;51.448;7.238;2024-01-06T05:48:10;7.00;99.90
1083;DHT22;530;51.448;7.238;2024-01-06T05:50:38;6.90;99.90
1083;DHT22;530;51.448;7.238;2024-01-06T05:53:04;6.90;99.90
1083;DHT22;530;51.448;7.238;2024-01-06T05:55:30;6.90;99.90
1083;DHT22;530;51.448;7.238;2024-01-06T05:57:56;6.90;99.90
1083;DHT22;530;51.448;7.238;2024-01-06T06:00:21;6.90;99.90
1083;DHT22;530;51.448;7.238;2024-01-06T06:02:47;6.90;99.90
1083;DHT22;530;51.448;7.238;2024-01-06T06:05:13;6.90;99.90
1083;DHT22;530;51.448;7.238;2024-01-06T06:07:39;6.80;99.90
1083;DHT22;530;51.448;7.238;2024-01-06T06:10:07;6.90;99.90
1083;DHT22;530;51.448;7.238;2024-01-06T06:12:33;6.80;99.90
1083;DHT22;530;51.448;7.238;2024-01-06T06:14:58;6.80;99.90
1083;DHT22;530;51.448;7.238;2024-01-06T06:17:24;6.80;99.90
1083;DHT22;530;51.448;7.238;2024-01-06T06:19:51;6.80;99.90
1083;DHT22;530;51.448;7.238;2024-01-06T06:22:16;6.80;99.90
1083;DHT22;530;51.448;7.238;2024-01-06T06:24:42;6.80;99.90
1083;DHT22;530;51.448;7.238;2024-01-06T06:27:08;6.80;99.90
1083;DHT22;530;51.448;7.238;2024-01-06T06:29:34;6.80;99.90
1083;DHT22;530;51.448;7.238;2024-01-06T06:32:00;6.80;99.90
1083;DHT22;530;51.448;7.238;2024-01-06T06:34:25;6.80;99.90
1083;DHT22;530;51.448;7.238;2024-01-06T06:36:51;6.80;99.90
1083;DHT22;530;51.448;7.238;2024-01-06T06:39:17;6.80;99.90
1083;DHT22;530;51.448;7.238;2024-01-06T06:41:43;6.80;99.90
1083;DHT22;530;51.448;7.238;2024-01-06T06:44:09;6.80;99.90
1083;DHT22;530;51.448;7.238;2024-01-06T06:46:36;6.80;99.90
1083;DHT22;530;51.448;7.238;2024-01-06T06:49:02;6.80;99.90
1083;DHT22;530;51.448;7.238;2024-01-06T06:51:28;6.80;99.90
1083;DHT22;530;51.448;7.238;2024-01-06T06:53:55;6.80;99.90
1083;DHT22;530;51.448;7.238;2024-01-06T06:56:21;6.80;99.90
1083;DHT22;530;51.448;7.238;2024-01-06T06:58:47;6.80;99.90
1083;DHT22;530;51.448;7.238;2024-01-06T07:01:16;6.70;99.90
1083;DHT22;530;51.448;7.238;2024-01-06T07:03:42;6.80;99.90
1083;DHT22;530;51.448;7.238;2024-01-06T07:06:07;6.80;99.90
1083;DHT22;530;51.448;7.238;2024-01-06T07:08:33;6.80;99.90
1083;DHT22;530;51.448;7.238;2024-01-06T07:10:59;6.70;99.90
1083;DHT22;530;51.448;7.238;2024-01-06T07:13:25;6.70;99.90
1083;DHT22;530;51.448;7.238;2024-01-06T07:15:51;6.70;99.90
1083;DHT22;530;51.448;7.238;2024-01-06T07:18:17;6.70;99.90
1083;DHT22;530;51.448;7.238;2024-01-06T07:20:44;6.70;99.90
1083;DHT22;530;51.448;7.238;2024-01-06T07:23:10;6.70;99.90
1083;DHT22;530;51.448;7.238;2024-01-06T07:25:35;6.70;99.90
1083;DHT22;530;51.448;7.238;2024-01-06T07:28:01;6.60;99.90
1083;DHT22;530;51.448;7.238;2024-01-06T07:30:27;6.70;99.90
1083;DHT22;530;51.448;7.238;2024-01-06T07:32:53;6.60;99.90
1083;DHT22;530;51.448;7.238;2024-01-06T07:35:19;6.60;99.90
1083;DHT22;530;51.448;7.238;2024-01-06T07:37:44;6.70;99.90
1083;DHT22;530;51.448;7.238;2024-01-06T07:40:10;6.60;99.90
1083;DHT22;530;51.448;7.238;2024-01-06T07:42:38;6.60;99.90
1083;DHT22;530;51.448;7.238;2024-01-06T07:45:04;6.60;99.90
1083;DHT22;530;51.448;7.238;2024-01-06T07:47:30;6.60;99.90
1083;DHT22;530;51.448;7.238;2024-01-06T07:49:56;6.60;99.90
1083;DHT22;530;51.448;7.238;2024-01-06T07:52:22;6.60;99.90
1083;DHT22;530;51.448;7.238;2024-01-06T07:54:48;6.60;99.90
1083;DHT22;530;51.448;7.238;2024-01-06T07:57:14;6.50;99.90
1083;DHT22;530;51.448;7.238;2024-01-06T07:59:40;6.50;99.90
1083;DHT22;530;51.448;7.238;2024-01-06T08:02:05;6.50;99.90
1083;DHT22;530;51.448;7.238;2024-01-06T08:04:31;6.50;99.90
1083;DHT22;530;51.448;7.238;2024-01-06T08:06:57;6.50;99.90
1083;DHT22;530;51.448;7.238;2024-01-06T08:09:22;6.40;99.90
1083;DHT22;530;51.448;7.238;2024-01-06T08:11:51;6.40;99.90
1083;DHT22;530;51.448;7.238;2024-01-06T08:14:16;6.40;99.90
1083;DHT22;530;51.448;7.238;2024-01-06T08:16:43;6.50;99.90
1083;DHT22;530;51.448;7.238;2024-01-06T08:19:09;6.40;99.90
1083;DHT22;530;51.448;7.238;2024-01-06T08:21:35;6.40;99.90
1083;DHT22;530;51.448;7.238;2024-01-06T08:24:01;6.50;99.90
1083;DHT22;530;51.448;7.238;2024-01-06T08:26:27;6.40;99.90
1083;DHT22;530;51.448;7.238;2024-01-06T08:28:53;6.40;99.90
1083;DHT22;530;51.448;7.238;2024-01-06T08:31:19;6.40;99.90
1083;DHT22;530;51.448;7.238;2024-01-06T08:33:44;6.40;99.90
1083;DHT22;530;51.448;7.238;2024-01-06T08:36:10;6.40;99.90
1083;DHT22;530;51.448;7.238;2024-01-06T08:38:36;6.40;99.90
1083;DHT22;530;51.448;7.238;2024-01-06T08:41:02;6.40;99.90
1083;DHT22;530;51.448;7.238;2024-01-06T08:43:28;6.40;99.90
1083;DHT22;530;51.448;7.238;2024-01-06T08:45:53;6.40;99.90
1083;DHT22;530;51.448;7.238;2024-01-06T08:48:19;6.40;99.90
1083;DHT22;530;51.448;7.238;2024-01-06T08:50:45;6.40;99.90
1083;DHT22;530;51.448;7.238;2024-01-06T08:53:14;6.30;99.90
1083;DHT22;530;51.448;7.238;2024-01-06T08:55:41;6.30;99.90
1083;DHT22;530;51.448;7.238;2024-01-06T08:58:06;6.30;99.90
1083;DHT22;530;51.448;7.238;2024-01-06T09:00:32;6.30;99.90
1083;DHT22;530;51.448;7.238;2024-01-06T09:02:58;6.30;99.90
1083;DHT22;530;51.448;7.238;2024-01-06T09:05:23;6.30;99.90
1083;DHT22;530;51.448;7.238;2024-01-06T09:07:49;6.30;99.90
1083;DHT22;530;51.448;7.238;2024-01-06T09:10:18;6.30;99.90
1083;DHT22;530;51.448;7.238;2024-01-06T09:12:44;6.30;99.90
1083;DHT22;530;51.448;7.238;2024-01-06T09:15:10;6.30;99.90
1083;DHT22;530;51.448;7.238;2024-01-06T09:17:36;6.30;99.90
1083;DHT22;530;51.448;7.238;2024-01-06T09:20:02;6.30;99.90
1083;DHT22;530;51.448;7.238;2024-01-06T09:22:28;6.30;99.90
1083;DHT22;530;51.448;7.238;2024-01-06T09:24:54;6.30;99.90
1083;DHT22;530;51.448;7.238;2024-01-06T09:27:20;6.30;99.90
1083;DHT22;530;51.448;7.238;2024-01-06T09:29:46;6.20;99.90
1083;DHT22;530;51.448;7.238;2024-01-06T09:32:12;6.20;99.90
1083;DHT22;530;51.448;7.238;2024-01-06T09:34:38;6.20;99.90
1083;DHT22;530;51.448;7.238;2024-01-06T09:37:04;6.20;99.90
1083;DHT22;530;51.448;7.238;2024-01-06T09:39:30;6.20;99.90
1083;DHT22;530;51.448;7.238;2024-01-06T09:41:57;6.20;99.90
1083;DHT22;530;51.448;7.238;2024-01-06T09:44:23;6.20;99.90
1083;DHT22;530;51.448;7.238;2024-01-06T09:46:49;6.20;99.90
1083;DHT22;530;51.448;7.238;2024-01-06T09:49:18;6.20;99.90
1083;DHT22;530;51.448;7.238;2024-01-06T09:51:49;6.10;99.90
1083;DHT22;530;51.448;7.238;2024-01-06T09:54:22;6.20;99.90
1083;DHT22;530;51.448;7.238;2024-01-06T09:56:49;6.10;99.90
1083;DHT22;530;51.448;7.238;2024-01-06T09:59:15;6.10;99.90
1083;DHT22;530;51.448;7.238;2024-01-06T10:01:41;6.10;99.90
1083;DHT22;530;51.448;7.238;2024-01-06T10:04:07;6.10;99.90
1083;DHT22;530;51.448;7.238;2024-01-06T10:06:33;6.10;99.90
1083;DHT22;530;51.448;7.238;2024-01-06T10:08:59;6.10;99.90
1083;DHT22;530;51.448;7.238;2024-01-06T10:11:25;6.10;99.90
1083;DHT22;530;51.448;7.238;2024-01-06T10:13:52;6.10;99.90
1083;DHT22;530;51.448;7.238;2024-01-06T10:16:18;6.10;99.90
1083;DHT22;530;51.448;7.238;2024-01-06T10:18:44;6.10;99.90
1083;DHT22;530;51.448;7.238;2024-01-06T10:21:10;6.10;99.90
1083;DHT22;530;51.448;7.238;2024-01-06T10:23:36;6.00;99.90
1083;DHT22;530;51.448;7.238;2024-01-06T10:26:02;6.00;99.90
1083;DHT22;530;51.448;7.238;2024-01-06T10:28:28;6.00;99.90
1083;DHT22;530;51.448;7.238;2024-01-06T10:30:55;6.00;99.90
1083;DHT22;530;51.448;7.238;2024-01-06T10:33:23;6.00;99.90
1083;DHT22;530;51.448;7.238;2024-01-06T10:35:49;6.00;99.90
1083;DHT22;530;51.448;7.238;2024-01-06T10:38:15;6.00;99.90
1083;DHT22;530;51.448;7.238;2024-01-06T10:41:07;6.00;99.90
1083;DHT22;530;51.448;7.238;2024-01-06T10:43:34;5.90;99.90
1083;DHT22;530;51.448;7.238;2024-01-06T10:46:09;5.90;99.90
1083;DHT22;530;51.448;7.238;2024-01-06T10:48:37;5.90;99.90
1083;DHT22;530;51.448;7.238;2024-01-06T10:51:10;5.90;99.90
1083;DHT22;530;51.448;7.238;2024-01-06T10:53:37;5.90;99.90
1083;DHT22;530;51.448;7.238;2024-01-06T10:56:05;5.80;99.90
1083;DHT22;530;51.448;7.238;2024-01-06T10:58:34;5.90;99.90
1083;DHT22;530;51.448;7.238;2024-01-06T11:01:03;5.90;99.90
1083;DHT22;530;51.448;7.238;2024-01-06T11:03:29;5.90;99.90
1083;DHT22;530;51.448;7.238;2024-01-06T11:05:56;5.80;99.90
1083;DHT22;530;51.448;7.238;2024-01-06T11:08:22;5.80;99.90
1083;DHT22;530;51.448;7.238;2024-01-06T11:10:49;5.80;99.90
1083;DHT22;530;51.448;7.238;2024-01-06T11:13:22;5.80;99.90
1083;DHT22;530;51.448;7.238;2024-01-06T11:15:50;5.80;99.90
1083;DHT22;530;51.448;7.238;2024-01-06T11:18:38;5.80;99.90
1083;DHT22;530;51.448;7.238;2024-01-06T11:21:22;5.80;99.90
1083;DHT22;530;51.448;7.238;2024-01-06T11:26:38;5.70;99.90
1083;DHT22;530;51.448;7.238;2024-01-06T11:29:05;5.80;99.90
1083;DHT22;530;51.448;7.238;2024-01-06T11:31:31;5.80;99.90
1083;DHT22;530;51.448;7.238;2024-01-06T11:33:56;5.80;99.90
1083;DHT22;530;51.448;7.238;2024-01-06T11:36:37;5.70;99.90
1083;DHT22;530;51.448;7.238;2024-01-06T11:39:02;5.70;99.90
1083;DHT22;530;51.448;7.238;2024-01-06T11:41:48;5.70;99.90
1083;DHT22;530;51.448;7.238;2024-01-06T11:44:18;5.70;99.90
1083;DHT22;530;51.448;7.238;2024-01-06T11:46:45;5.70;99.90
1083;DHT22;530;51.448;7.238;2024-01-06T11:49:11;5.70;99.90
1083;DHT22;530;51.448;7.238;2024-01-06T11:51:37;5.70;99.90
1083;DHT22;530;51.448;7.238;2024-01-06T11:54:03;5.70;99.90
1083;DHT22;530;51.448;7.238;2024-01-06T11:56:29;5.70;99.90
1083;DHT22;530;51.448;7.238;2024-01-06T11:58:54;5.70;99.90
1083;DHT22;530;51.448;7.238;2024-01-06T12:01:20;5.70;99.90
1083;DHT22;530;51.448;7.238;2024-01-06T12:03:46;5.60;99.90
1083;DHT22;530;51.448;7.238;2024-01-06T12:06:12;5.60;99.90
1083;DHT22;530;51.448;7.238;2024-01-06T12:08:37;5.60;99.90
1083;DHT22;530;51.448;7.238;2024-01-06T12:11:05;5.60;99.90
1083;DHT22;530;51.448;7.238;2024-01-06T12:13:31;5.60;99.90
1083;DHT22;530;51.448;7.238;2024-01-06T12:15:57;5.60;99.90
1083;DHT22;530;51.448;7.238;2024-01-06T12:18:25;5.60;99.90
1083;DHT22;530;51.448;7.238;2024-01-06T12:20:52;5.60;99.90
1083;DHT22;530;51.448;7.238;2024-01-06T12:23:25;5.60;99.90
1083;DHT22;530;51.448;7.238;2024-01-06T12:25:51;5.50;99.90
1083;DHT22;530;51.448;7.238;2024-01-06T12:28:17;5.60;99.90
1083;DHT22;530;51.448;7.238;2024-01-06T12:30:44;5.60;99.90
1083;DHT22;530;51.448;7.238;2024-01-06T12:33:10;5.50;99.90
1083;DHT22;530;51.448;7.238;2024-01-06T12:35:36;5.50;99.90
1083;DHT22;530;51.448;7.238;2024-01-06T12:38:03;5.50;99.90
1083;DHT22;530;51.448;7.238;2024-01-06T12:40:31;5.50;99.90
1083;DHT22;530;51.448;7.238;2024-01-06T12:42:57;5.50;99.90
1083;DHT22;530;51.448;7.238;2024-01-06T12:45:23;5.50;99.90
1083;DHT22;530;51.448;7.238;2024-01-06T12:47:48;5.50;99.90
1083;DHT22;530;51.448;7.238;2024-01-06T12:50:14;5.50;99.90
1083;DHT22;530;51.448;7.238;2024-01-06T12:52:40;5.50;99.90
1083;DHT22;530;51.448;7.238;2024-01-06T12:55:08;5.40;99.90
1083;DHT22;530;51.448;7.238;2024-01-06T12:57:35;5.40;99.90
1083;DHT22;530;51.448;7.238;2024-01-06T13:00:01;5.50;99.90
1083;DHT22;530;51.448;7.238;2024-01-06T13:02:27;5.50;99.90
1083;DHT22;530;51.448;7.238;2024-01-06T13:04:53;5.50;99.90
1083;DHT22;530;51.448;7.238;2024-01-06T13:07:18;5.50;99.90
1083;DHT22;530;51.448;7.238;2024-01-06T13:09:44;5.40;99.90
1083;DHT22;530;51.448;7.238;2024-01-06T13:12:10;5.40;99.90
1083;DHT22;530;51.448;7.238;2024-01-06T13:14:35;5.40;99.90
1083;DHT22;530;51.448;7.238;2024-01-06T13:17:01;5.40;99.90
1083;DHT22;530;51.448;7.238;2024-01-06T13:19:27;5.40;99.90
1083;DHT22;530;51.448;7.238;2024-01-06T13:21:53;5.40;99.90
1083;DHT22;530;51.448;7.238;2024-01-06T13:24:19;5.40;99.90
1083;DHT22;530;51.448;7.238;2024-01-06T13:26:45;5.40;99.90
1083;DHT22;530;51.448;7.238;2024-01-06T13:29:11;5.40;99.90
1083;DHT22;530;51.448;7.238;2024-01-06T13:31:36;5.40;99.90
1083;DHT22;530;51.448;7.238;2024-01-06T13:34:02;5.40;99.90
1083;DHT22;530;51.448;7.238;2024-01-06T13:36:28;5.40;99.90
1083;DHT22;530;51.448;7.238;2024-01-06T13:38:55;5.40;99.90
1083;DHT22;530;51.448;7.238;2024-01-06T13:41:21;5.30;99.90
1083;DHT22;530;51.448;7.238;2024-01-06T13:43:48;5.30;99.90
1083;DHT22;530;51.448;7.238;2024-01-06T13:46:14;5.30;99.90
1083;DHT22;530;51.448;7.238;2024-01-06T13:48:40;5.30;99.90
1083;DHT22;530;51.448;7.238;2024-01-06T13:51:07;5.30;99.90
1083;DHT22;530;51.448;7.238;2024-01-06T13:53:34;5.30;99.90
1083;DHT22;530;51.448;7.238;2024-01-06T13:55:59;5.30;99.90
1083;DHT22;530;51.448;7.238;2024-01-06T13:58:25;5.30;99.90
1083;DHT22;530;51.448;7.238;2024-01-06T14:00:51;5.30;99.90
1083;DHT22;530;51.448;7.238;2024-01-06T14:03:16;5.30;99.90
1083;DHT22;530;51.448;7.238;2024-01-06T14:05:42;5.30;99.90
1083;DHT22;530;51.448;7.238;2024-01-06T14:08:08;5.30;99.90
1083;DHT22;530;51.448;7.238;2024-01-06T14:10:33;5.30;99.90
1083;DHT22;530;51.448;7.238;2024-01-06T14:12:59;5.20;99.90
1083;DHT22;530;51.448;7.238;2024-01-06T14:15:25;5.30;99.90
1083;DHT22;530;51.448;7.238;2024-01-06T14:17:52;5.20;99.90
1083;DHT22;530;51.448;7.238;2024-01-06T14:20:18;5.20;99.90
1083;DHT22;530;51.448;7.238;2024-01-06T14:22:45;5.20;99.90
1083;DHT22;530;51.448;7.238;2024-01-06T14:25:12;5.20;99.90
1083;DHT22;530;51.448;7.238;2024-01-06T14:27:38;5.20;99.90
1083;DHT22;530;51.448;7.238;2024-01-06T14:30:04;5.20;99.90
1083;DHT22;530;51.448;7.238;2024-01-06T14:32:32;5.20;99.90
1083;DHT22;530;51.448;7.238;2024-01-06T14:34:58;5.20;99.90
1083;DHT22;530;51.448;7.238;2024-01-06T14:37:24;5.20;99.90
1083;DHT22;530;51.448;7.238;2024-01-06T14:39:50;5.20;99.90
1083;DHT22;530;51.448;7.238;2024-01-06T14:42:15;5.20;99.90
1083;DHT22;530;51.448;7.238;2024-01-06T14:44:44;5.20;99.90
1083;DHT22;530;51.448;7.238;2024-01-06T14:47:10;5.20;99.90
1083;DHT22;530;51.448;7.238;2024-01-06T14:49:35;5.20;99.90
1083;DHT22;530;51.448;7.238;2024-01-06T14:52:01;5.10;99.90
1083;DHT22;530;51.448;7.238;2024-01-06T14:54:27;5.10;99.90
1083;DHT22;530;51.448;7.238;2024-01-06T14:56:57;5.10;99.90
1083;DHT22;530;51.448;7.238;2024-01-06T14:59:23;5.10;99.90
1083;DHT22;530;51.448;7.238;2024-01-06T15:01:49;5.10;99.90
1083;DHT22;530;51.448;7.238;2024-01-06T15:04:15;5.10;99.90
1083;DHT22;530;51.448;7.238;2024-01-06T15:06:43;5.10;99.90
1083;DHT22;530;51.448;7.238;2024-01-06T15:09:09;5.10;99.90
1083;DHT22;530;51.448;7.238;2024-01-06T15:11:35;5.20;99.90
1083;DHT22;530;51.448;7.238;2024-01-06T15:14:01;5.20;99.90
1083;DHT22;530;51.448;7.238;2024-01-06T15:16:30;5.20;99.90
1083;DHT22;530;51.448;7.238;2024-01-06T15:18:56;5.20;99.90
1083;DHT22;530;51.448;7.238;2024-01-06T15:21:24;5.30;99.90
1083;DHT22;530;51.448;7.238;2024-01-06T15:23:52;5.30;99.90
1083;DHT22;530;51.448;7.238;2024-01-06T15:26:23;5.30;99.90
1083;DHT22;530;51.448;7.238;2024-01-06T15:28:50;5.30;99.90
1083;DHT22;530;51.448;7.238;2024-01-06T15:31:15;5.30;99.90
1083;DHT22;530;51.448;7.238;2024-01-06T15:33:41;5.30;99.90
1083;DHT22;530;51.448;7.238;2024-01-06T15:36:08;5.30;99.90
1083;DHT22;530;51.448;7.238;2024-01-06T15:38:34;5.30;99.90
1083;DHT22;530;51.448;7.238;2024-01-06T15:40:59;5.30;99.90
1083;DHT22;530;51.448;7.238;2024-01-06T15:43:25;5.30;99.90
1083;DHT22;530;51.448;7.238;2024-01-06T15:45:51;5.30;99.90
1083;DHT22;530;51.448;7.238;2024-01-06T15:48:19;5.30;99.90
1083;DHT22;530;51.448;7.238;2024-01-06T15:50:45;5.30;99.90
1083;DHT22;530;51.448;7.238;2024-01-06T15:53:11;5.30;99.90
1083;DHT22;530;51.448;7.238;2024-01-06T15:55:40;5.30;99.90
1083;DHT22;530;51.448;7.238;2024-01-06T15:58:06;5.30;99.90
1083;DHT22;530;51.448;7.238;2024-01-06T16:00:32;5.30;99.90
1083;DHT22;530;51.448;7.238;2024-01-06T16:02:59;5.30;99.90
1083;DHT22;530;51.448;7.238;2024-01-06T16:05:25;5.30;99.90
1083;DHT22;530;51.448;7.238;2024-01-06T16:07:51;5.30;99.90
1083;DHT22;530;51.448;7.238;2024-01-06T16:10:19;5.30;99.90
1083;DHT22;530;51.448;7.238;2024-01-06T16:12:49;5.30;99.90
1083;DHT22;530;51.448;7.238;2024-01-06T16:15:17;5.30;99.90
1083;DHT22;530;51.448;7.238;2024-01-06T16:17:45;5.30;99.90
1083;DHT22;530;51.448;7.238;2024-01-06T16:20:11;5.30;99.90
1083;DHT22;530;51.448;7.238;2024-01-06T16:22:37;5.30;99.90
1083;DHT22;530;51.448;7.238;2024-01-06T16:25:03;5.30;99.90
1083;DHT22;530;51.448;7.238;2024-01-06T16:27:28;5.30;99.90
1083;DHT22;530;51.448;7.238;2024-01-06T16:29:54;5.30;99.90
1083;DHT22;530;51.448;7.238;2024-01-06T16:32:19;5.30;99.90